Terminal Aerodrome Forecast
Issued by NWS

Home | Current Version | Previous Version | Text Only | Print | Product List | Glossary On
Versions: 1 2 3 4 5 6 7 8 9 10 11 12 13 14 15 16 17 18 19 20 21 22 23 24 25 26 27 28 29 30 31 32
000
FTUS46 KMTR 241700
TAFSFO
TAF
KSFO 241722Z 2418/2524 01006KT P6SM FEW010
     FM242100 29016KT P6SM FEW010
     FM242300 29020G25KT P6SM FEW010
     FM250300 29015KT P6SM FEW010
     FM250700 28005KT P6SM FEW010
     FM251700 01005KT P6SM FEW010=

USA.gov is the U.S. government's official web portal to all federal, state and local government web resources and services.